GIA7075 WITT-OEMA
Flight info
| Callsign | GIA7075 |
|---|---|
| Flight time | N/A |
| Altitude | 34000 |
| Route | OTKUL DCT NIXUL P570 IBOTU/N0491F360 P570 GOLNI N569 UMILA L883 MEVLI/N0485F380 L883 SITOL DCT PUSON L883 KITUB Y511 ELONU |
| Aircraft | B77W/H-SDE1E2E3FGHIJ2J3J4J5M1RWXY/LB1D1 |
Departure
| Time | 2026-05-08 09:31 |
|---|---|
| Airport | Sultan Iskandar Muda International Airport (WITT) |
Arrival
| Time | N/A |
|---|---|
| Airport | Prince Mohammad Bin Abdulaziz Airport (OEMA) |
| Time | Latitude | Longitude | Altitude | Speed | Heading |
|---|---|---|---|---|---|
| 2026-05-08 09:19 | 5.51684 | 95.41866 | 86 ft | 0 kts | 258° |
| 2026-05-08 09:25 | 5.51688 | 95.41884 | 86 ft | 4 kts | 256° |
| 2026-05-08 09:26 | 5.51695 | 95.41910 | 86 ft | 4 kts | 251° |
| 2026-05-08 09:26 | 5.51704 | 95.41936 | 86 ft | 4 kts | 246° |
| 2026-05-08 09:26 | 5.51716 | 95.41960 | 85 ft | 4 kts | 237° |
| 2026-05-08 09:26 | 5.51721 | 95.41967 | 85 ft | 6 kts | 234° |
| 2026-05-08 09:28 | 5.51715 | 95.41963 | 85 ft | 6 kts | 216° |
| 2026-05-08 09:29 | 5.51653 | 95.41980 | 82 ft | 11 kts | 145° |
| 2026-05-08 09:29 | 5.51519 | 95.42035 | 79 ft | 32 kts | 168° |
| 2026-05-08 09:29 | 5.51288 | 95.42081 | 83 ft | 22 kts | 164° |
| 2026-05-08 09:29 | 5.51241 | 95.42138 | 70 ft | 0 kts | 90° |
| 2026-05-08 09:30 | 5.51241 | 95.42145 | 72 ft | 8 kts | 89° |
| 2026-05-08 09:31 | 5.51306 | 95.42236 | 74 ft | 26 kts | 9° |
| 2026-05-08 09:31 | 5.51682 | 95.42165 | 71 ft | 102 kts | 348° |
| 2026-05-08 09:31 | 5.52668 | 95.41956 | 222 ft | 179 kts | 347° |
| 2026-05-08 09:31 | 5.53888 | 95.41698 | 1389 ft | 183 kts | 348° |
| 2026-05-08 09:32 | 5.55153 | 95.41439 | 2073 ft | 196 kts | 349° |
| 2026-05-08 09:32 | 5.56368 | 95.40958 | 2254 ft | 222 kts | 320° |
| 2026-05-08 09:32 | 5.57090 | 95.39781 | 2644 ft | 233 kts | 281° |
| 2026-05-08 09:32 | 5.57108 | 95.38261 | 2924 ft | 254 kts | 263° |
| 2026-05-08 09:33 | 5.56917 | 95.36507 | 3389 ft | 267 kts | 264° |
| 2026-05-08 09:33 | 5.56779 | 95.34844 | 3858 ft | 271 kts | 265° |
| 2026-05-08 09:33 | 5.56733 | 95.33257 | 4267 ft | 266 kts | 272° |
| 2026-05-08 09:33 | 5.56865 | 95.31730 | 4819 ft | 272 kts | 276° |
| 2026-05-08 09:34 | 5.57092 | 95.29933 | 5441 ft | 279 kts | 277° |
| 2026-05-08 09:34 | 5.57351 | 95.28002 | 6173 ft | 283 kts | 277° |
| 2026-05-08 09:34 | 5.57531 | 95.26645 | 6682 ft | 285 kts | 277° |
| 2026-05-08 09:34 | 5.57712 | 95.25259 | 7177 ft | 287 kts | 277° |
| 2026-05-08 09:35 | 5.57905 | 95.23753 | 7718 ft | 290 kts | 276° |
| 2026-05-08 09:35 | 5.58140 | 95.21880 | 8375 ft | 294 kts | 276° |
| 2026-05-08 09:35 | 5.58391 | 95.19850 | 9063 ft | 297 kts | 276° |
| 2026-05-08 09:35 | 5.58641 | 95.17794 | 9770 ft | 301 kts | 276° |
| 2026-05-08 09:36 | 5.58895 | 95.15683 | 10303 ft | 313 kts | 276° |
| 2026-05-08 09:36 | 5.59161 | 95.13460 | 10474 ft | 339 kts | 276° |
| 2026-05-08 09:36 | 5.59447 | 95.11044 | 10663 ft | 362 kts | 276° |
| 2026-05-08 09:36 | 5.59757 | 95.08425 | 10897 ft | 382 kts | 276° |
| 2026-05-08 09:37 | 5.60055 | 95.05900 | 11392 ft | 392 kts | 276° |
| 2026-05-08 09:37 | 5.60352 | 95.03374 | 11981 ft | 398 kts | 276° |
| 2026-05-08 09:37 | 5.60674 | 95.00633 | 12740 ft | 401 kts | 276° |
| 2026-05-08 09:37 | 5.60969 | 94.98122 | 13438 ft | 405 kts | 276° |
| 2026-05-08 09:38 | 5.61291 | 94.95370 | 14116 ft | 409 kts | 276° |
| 2026-05-08 09:38 | 5.61618 | 94.92574 | 14725 ft | 414 kts | 276° |
| 2026-05-08 09:38 | 5.61957 | 94.89675 | 15349 ft | 419 kts | 276° |
| 2026-05-08 09:38 | 5.62298 | 94.86761 | 15962 ft | 423 kts | 276° |
| 2026-05-08 09:39 | 5.62632 | 94.83895 | 16553 ft | 428 kts | 276° |
| 2026-05-08 09:39 | 5.62973 | 94.80976 | 17135 ft | 432 kts | 276° |
| 2026-05-08 09:39 | 5.63306 | 94.78127 | 17701 ft | 436 kts | 276° |
| 2026-05-08 09:39 | 5.63660 | 94.75093 | 18248 ft | 441 kts | 276° |
| 2026-05-08 09:40 | 5.64015 | 94.72050 | 18742 ft | 444 kts | 276° |
| 2026-05-08 09:40 | 5.64345 | 94.69212 | 19209 ft | 447 kts | 276° |
| 2026-05-08 09:40 | 5.64704 | 94.66139 | 19734 ft | 450 kts | 276° |
| 2026-05-08 09:40 | 5.65065 | 94.63037 | 20240 ft | 454 kts | 276° |
| 2026-05-08 09:41 | 5.65431 | 94.59890 | 20725 ft | 457 kts | 276° |
| 2026-05-08 09:41 | 5.65805 | 94.56682 | 21217 ft | 461 kts | 276° |
| 2026-05-08 09:41 | 5.66178 | 94.53477 | 21694 ft | 465 kts | 276° |
| 2026-05-08 09:41 | 5.66554 | 94.50242 | 22184 ft | 468 kts | 276° |
| 2026-05-08 09:42 | 5.66926 | 94.47040 | 22675 ft | 471 kts | 276° |
| 2026-05-08 09:42 | 5.67286 | 94.43942 | 23100 ft | 475 kts | 276° |
| 2026-05-08 09:42 | 5.67655 | 94.40772 | 23506 ft | 478 kts | 276° |
| 2026-05-08 09:42 | 5.68019 | 94.37637 | 23855 ft | 480 kts | 276° |
| 2026-05-08 09:43 | 5.68398 | 94.34368 | 24251 ft | 482 kts | 276° |
| 2026-05-08 09:43 | 5.68777 | 94.31097 | 24640 ft | 484 kts | 276° |
| 2026-05-08 09:43 | 5.69166 | 94.27743 | 25022 ft | 486 kts | 276° |
| 2026-05-08 09:43 | 5.69552 | 94.24400 | 25387 ft | 489 kts | 276° |
| 2026-05-08 09:44 | 5.69939 | 94.21050 | 25731 ft | 491 kts | 276° |
| 2026-05-08 09:44 | 5.70321 | 94.17746 | 26053 ft | 494 kts | 276° |
| 2026-05-08 09:44 | 5.70718 | 94.14320 | 26400 ft | 496 kts | 276° |
| 2026-05-08 09:44 | 5.71117 | 94.10874 | 26734 ft | 499 kts | 276° |
| 2026-05-08 09:45 | 5.71518 | 94.07408 | 27054 ft | 501 kts | 276° |
| 2026-05-08 09:45 | 5.71905 | 94.04059 | 27372 ft | 503 kts | 276° |
| 2026-05-08 09:45 | 5.72306 | 94.00577 | 27690 ft | 505 kts | 276° |
| 2026-05-08 09:45 | 5.72688 | 93.97261 | 27976 ft | 508 kts | 276° |
| 2026-05-08 09:46 | 5.73090 | 93.93773 | 28262 ft | 510 kts | 276° |
| 2026-05-08 09:46 | 5.73488 | 93.90325 | 28533 ft | 512 kts | 276° |
| 2026-05-08 09:46 | 5.73895 | 93.86791 | 28788 ft | 514 kts | 276° |
| 2026-05-08 09:46 | 5.74298 | 93.83282 | 29041 ft | 516 kts | 276° |
| 2026-05-08 09:47 | 5.74709 | 93.79715 | 29280 ft | 518 kts | 276° |
| 2026-05-08 09:47 | 5.75119 | 93.76145 | 29508 ft | 519 kts | 276° |
| 2026-05-08 09:47 | 5.75533 | 93.72538 | 29828 ft | 519 kts | 276° |
| 2026-05-08 09:47 | 5.75946 | 93.68943 | 30160 ft | 518 kts | 276° |
| 2026-05-08 09:48 | 5.76358 | 93.65353 | 30476 ft | 517 kts | 276° |
| 2026-05-08 09:48 | 5.76764 | 93.61811 | 30767 ft | 516 kts | 277° |
| 2026-05-08 09:48 | 5.77122 | 93.58686 | 31018 ft | 516 kts | 277° |
| 2026-05-08 09:48 | 5.77391 | 93.56340 | 31206 ft | 516 kts | 277° |
| 2026-05-08 09:49 | 5.77800 | 93.52764 | 31510 ft | 515 kts | 277° |
| 2026-05-08 09:49 | 5.78347 | 93.47986 | 31873 ft | 516 kts | 277° |
| 2026-05-08 09:49 | 5.78603 | 93.45744 | 31909 ft | 519 kts | 277° |
| 2026-05-08 09:50 | 5.79412 | 93.38676 | 31980 ft | 528 kts | 277° |
| 2026-05-08 09:50 | 5.80358 | 93.30385 | 32128 ft | 534 kts | 277° |
| 2026-05-08 09:51 | 5.81057 | 93.24260 | 32401 ft | 534 kts | 277° |
| 2026-05-08 09:51 | 5.81474 | 93.20593 | 32615 ft | 533 kts | 277° |
| 2026-05-08 09:51 | 5.81888 | 93.16952 | 32793 ft | 532 kts | 277° |
| 2026-05-08 09:51 | 5.82294 | 93.13388 | 32971 ft | 532 kts | 277° |
| 2026-05-08 09:52 | 5.82716 | 93.09688 | 33142 ft | 532 kts | 277° |
| 2026-05-08 09:52 | 5.83129 | 93.06068 | 33321 ft | 532 kts | 277° |
| 2026-05-08 09:52 | 5.83547 | 93.02380 | 33505 ft | 531 kts | 277° |
| 2026-05-08 09:52 | 5.83960 | 92.98736 | 33687 ft | 531 kts | 277° |
| 2026-05-08 09:53 | 5.84375 | 92.95074 | 33754 ft | 533 kts | 277° |
| 2026-05-08 09:53 | 5.85206 | 92.87747 | 33836 ft | 531 kts | 277° |
| 2026-05-08 09:54 | 5.86036 | 92.80419 | 33816 ft | 531 kts | 277° |
| 2026-05-08 09:54 | 5.86871 | 92.73041 | 33814 ft | 530 kts | 277° |
| 2026-05-08 09:55 | 5.87700 | 92.65695 | 33814 ft | 530 kts | 276° |
| 2026-05-08 09:55 | 5.88522 | 92.58416 | 33814 ft | 529 kts | 276° |
| 2026-05-08 09:56 | 5.89343 | 92.51127 | 33813 ft | 529 kts | 276° |